Time;durP1;ratioP1;P1;durP2;ratioP2;P2;SDS_P1;SDS_P2;PMS_P1;PMS_P2;Temp;Humidity;BMP_temperature;BMP_pressure;BME280_temperature;BME280_humidity;BME280_pressure;Samples;Min_cycle;Max_cycle;Signal;HPM_P1;HPM_P2
2021/07/13 00:00:40;;;;;;;;;37.50;33.00;;;;;19.50;86.46;99210.44;3581121;40;14625;-53
2021/07/13 00:03:08;;;;;;;;;39.75;34.00;;;;;19.76;85.78;99214.16;3577787;40;14240;-56
2021/07/13 00:05:38;;;;;;;;;38.75;33.00;;;;;19.78;85.13;99213.00;3585946;40;14100;-56
2021/07/13 00:08:06;;;;;;;;;36.00;33.25;;;;;19.39;86.39;99213.47;3586323;40;14093;-51
2021/07/13 00:10:41;;;;;;;;;37.50;33.50;;;;;18.83;87.95;99218.41;3585773;40;14045;-59
2021/07/13 00:13:09;;;;;;;;;39.00;34.00;;;;;18.76;87.69;99219.19;3584661;40;14572;-59
2021/07/13 00:15:43;;;;;;;;;37.25;34.00;;;;;19.30;84.14;99218.03;3575834;40;14570;-60
2021/07/13 00:18:12;;;;;;;;;41.75;35.25;;;;;18.93;85.65;99212.88;3585471;40;14250;-59
2021/07/13 00:20:40;;;;;;;;;38.25;33.00;;;;;19.04;86.02;99214.47;3585065;40;14184;-59
2021/07/13 00:23:08;;;;;;;;;37.50;32.75;;;;;18.45;88.99;99206.00;3582559;40;14315;-59
2021/07/13 00:25:36;;;;;;;;;35.50;33.50;;;;;18.70;88.49;99209.78;3586511;40;14298;-59
2021/07/13 00:28:05;;;;;;;;;39.50;33.50;;;;;18.43;89.38;99205.28;3585406;40;14090;-59
2021/07/13 00:30:33;;;;;;;;;40.50;33.75;;;;;18.02;91.01;99213.06;3585542;40;14101;-59
2021/07/13 00:33:00;;;;;;;;;36.00;32.25;;;;;18.34;89.09;99217.09;3584928;40;14064;-59
2021/07/13 00:35:28;;;;;;;;;37.25;34.00;;;;;18.44;87.66;99212.44;3586126;40;14074;-59
2021/07/13 00:37:55;;;;;;;;;40.00;33.00;;;;;18.36;88.54;99215.09;3587610;40;14251;-58
2021/07/13 00:40:23;;;;;;;;;39.00;33.50;;;;;18.77;86.73;99213.59;3587183;40;14272;-59
2021/07/13 00:42:53;;;;;;;;;39.25;34.00;;;;;19.11;85.24;99212.78;3586465;40;14081;-59
2021/07/13 00:45:22;;;;;;;;;39.00;33.75;;;;;19.05;86.54;99210.72;3587491;40;14304;-59
2021/07/13 00:47:52;;;;;;;;;37.00;33.50;;;;;19.28;85.62;99216.47;3594913;40;14091;-59
2021/07/13 00:50:24;;;;;;;;;34.25;32.75;;;;;18.41;88.78;99205.47;3586714;40;14660;-59
2021/07/13 00:52:52;;;;;;;;;38.50;33.50;;;;;18.12;91.09;99197.53;3587322;40;14186;-58
2021/07/13 00:55:20;;;;;;;;;37.75;33.25;;;;;18.71;89.03;99197.03;3587426;40;14279;-59
2021/07/13 00:57:47;;;;;;;;;43.25;36.75;;;;;18.57;89.96;99202.03;3587174;40;14559;-59
2021/07/13 01:00:19;;;;;;;;;42.00;36.00;;;;;18.99;88.37;99204.06;3587028;40;14294;-58
2021/07/13 01:02:51;;;;;;;;;45.50;36.75;;;;;19.17;88.44;99197.69;3586968;40;14054;-59
2021/07/13 01:05:23;;;;;;;;;45.25;37.25;;;;;19.23;88.66;99191.63;3586462;40;14043;-59
2021/07/13 01:08:00;;;;;;;;;42.75;35.75;;;;;19.07;89.21;99197.81;3586372;40;14267;-59
2021/07/13 01:10:56;;;;;;;;;41.25;36.25;;;;;19.10;89.26;99192.06;3594120;40;14087;-59
2021/07/13 01:14:00;;;;;;;;;43.75;34.75;;;;;19.01;89.00;99184.84;3586315;40;14072;-58
2021/07/13 01:16:45;;;;;;;;;46.50;37.00;;;;;19.05;89.45;99197.13;3586891;40;14136;-58
2021/07/13 01:19:33;;;;;;;;;44.25;35.50;;;;;19.21;89.38;99194.47;3586451;40;14056;-59
2021/07/13 01:22:08;;;;;;;;;43.00;36.00;;;;;19.21;89.68;99196.34;3584919;40;14011;-59
2021/07/13 01:25:14;;;;;;;;;40.50;35.25;;;;;19.09;89.75;99190.34;3587148;40;14051;-59
2021/07/13 01:27:47;;;;;;;;;39.50;34.25;;;;;19.33;87.89;99184.19;3586639;40;14056;-58
2021/07/13 01:30:26;;;;;;;;;42.00;35.25;;;;;19.11;88.52;99182.00;3586606;40;14074;-59
2021/07/13 01:33:10;;;;;;;;;46.75;38.25;;;;;19.04;87.55;99182.66;3585855;40;14085;-59
2021/07/13 01:35:57;;;;;;;;;41.25;36.00;;;;;18.90;89.36;99185.97;3590551;40;14263;-59
2021/07/13 01:38:28;;;;;;;;;45.00;37.25;;;;;19.01;90.37;99195.72;3582781;40;14099;-59
2021/07/13 01:41:03;;;;;;;;;40.75;35.75;;;;;18.99;89.73;99193.19;3594048;40;14052;-59
2021/07/13 01:43:31;;;;;;;;;41.25;36.25;;;;;19.06;89.86;99194.25;3584744;40;14090;-59
2021/07/13 01:45:58;;;;;;;;;44.75;35.50;;;;;18.97;90.22;99197.06;3594334;40;14609;-59
2021/07/13 01:48:30;;;;;;;;;39.50;36.00;;;;;18.61;90.74;99189.81;3584116;40;14057;-58
2021/07/13 01:50:59;;;;;;;;;43.00;36.50;;;;;18.12;93.41;99191.25;3593876;40;14242;-59
2021/07/13 01:53:31;;;;;;;;;40.75;36.25;;;;;17.95;95.44;99190.22;3586875;40;14099;-59
2021/07/13 01:56:00;;;;;;;;;46.25;37.50;;;;;18.31;94.72;99195.69;3591984;40;14124;-59
2021/07/13 01:58:30;;;;;;;;;46.25;39.25;;;;;18.62;91.90;99194.25;3586018;40;14672;-59
2021/07/13 02:01:05;;;;;;;;;49.00;39.50;;;;;18.79;91.61;99194.41;3593917;40;14060;-59
2021/07/13 02:03:33;;;;;;;;;45.50;36.75;;;;;18.53;93.03;99194.34;3594621;39;13120;-59
2021/07/13 02:06:02;;;;;;;;;44.25;38.00;;;;;18.78;92.75;99190.81;3585926;40;14560;-59
2021/07/13 02:08:30;;;;;;;;;47.50;39.75;;;;;18.84;92.16;99192.06;3586031;40;14666;-59
2021/07/13 02:10:57;;;;;;;;;40.00;35.00;;;;;18.89;91.73;99189.72;3585641;40;14066;-59
2021/07/13 02:13:25;;;;;;;;;44.25;36.75;;;;;18.35;94.58;99191.63;3585894;40;14248;-58
2021/07/13 02:15:52;;;;;;;;;44.00;38.00;;;;;18.32;94.79;99194.66;3584186;40;14608;-59
2021/07/13 02:18:20;;;;;;;;;46.75;38.25;;;;;18.58;93.70;99192.00;3585730;40;14276;-59
2021/07/13 02:20:47;;;;;;;;;46.75;37.75;;;;;18.73;91.78;99184.13;3585792;40;14272;-59
2021/07/13 02:23:14;;;;;;;;;41.50;36.25;;;;;18.30;93.23;99189.41;3586783;40;14567;-59
2021/07/13 02:25:44;;;;;;;;;41.75;35.50;;;;;18.12;94.36;99186.69;3586763;40;14057;-58
2021/07/13 02:28:39;;;;;;;;;44.75;37.00;;;;;18.05;94.03;99182.88;3594232;40;14098;-59
2021/07/13 02:31:26;;;;;;;;;41.75;37.00;;;;;18.40;93.02;99187.44;3583790;40;14586;-59
2021/07/13 02:34:09;;;;;;;;;49.50;41.50;;;;;18.41;93.44;99182.88;3585250;40;14205;-59
2021/07/13 02:36:45;;;;;;;;;48.00;40.25;;;;;18.53;93.94;99181.59;3594222;40;14069;-58
2021/07/13 02:39:15;;;;;;;;;52.25;41.25;;;;;18.18;94.75;99186.03;3585193;40;14172;-58
2021/07/13 02:41:47;;;;;;;;;43.25;37.50;;;;;18.36;95.16;99186.03;3585105;40;14272;-58
2021/07/13 02:44:16;;;;;;;;;44.25;38.25;;;;;18.24;96.39;99194.59;3583501;40;14222;-59
2021/07/13 02:46:44;;;;;;;;;50.25;40.00;;;;;18.06;96.15;99186.44;3585645;40;15102;-59
2021/07/13 02:49:30;;;;;;;;;47.25;40.25;;;;;18.54;95.27;99196.06;3577335;40;14056;-59
2021/07/13 02:52:03;;;;;;;;;43.00;37.00;;;;;18.51;92.76;99190.91;3586438;40;14058;-59
2021/07/13 02:54:32;;;;;;;;;45.00;37.75;;;;;18.01;95.03;99195.06;3585965;40;14230;-58
2021/07/13 02:57:03;;;;;;;;;43.25;36.50;;;;;17.67;95.95;99195.69;3585714;40;14071;-59
2021/07/13 02:59:33;;;;;;;;;42.75;34.75;;;;;17.59;95.07;99194.69;3593392;39;14051;-59
2021/07/13 03:02:01;;;;;;;;;49.00;40.00;;;;;17.80;94.44;99186.31;3585846;40;14054;-58
2021/07/13 03:04:29;;;;;;;;;44.25;38.00;;;;;18.40;93.73;99190.16;3584421;40;14163;-59
2021/07/13 03:06:58;;;;;;;;;47.50;40.00;;;;;18.56;93.79;99184.00;3586224;40;14218;-59
2021/07/13 03:09:26;;;;;;;;;48.75;40.00;;;;;18.47;93.55;99182.22;3584906;40;14056;-58
2021/07/13 03:11:54;;;;;;;;;46.50;38.00;;;;;18.42;93.69;99182.69;3585162;40;14581;-58
2021/07/13 03:14:23;;;;;;;;;43.75;37.75;;;;;18.50;93.88;99179.19;3585597;40;13101;-58
2021/07/13 03:16:51;;;;;;;;;50.50;39.00;;;;;18.49;93.23;99182.94;3585393;40;14050;-58
2021/07/13 03:19:18;;;;;;;;;41.50;35.75;;;;;18.69;92.34;99188.16;3585983;40;14543;-58
2021/07/13 03:21:54;;;;;;;;;54.00;41.00;;;;;18.48;93.31;99186.63;3586363;40;14282;-59
2021/07/13 03:24:24;;;;;;;;;47.00;38.75;;;;;18.72;92.34;99187.84;3585732;40;14254;-58
2021/07/13 03:26:53;;;;;;;;;52.75;44.00;;;;;18.67;92.62;99187.47;3585346;40;14062;-58
2021/07/13 03:29:21;;;;;;;;;47.25;38.00;;;;;18.61;92.90;99189.81;3593303;40;14078;-58
2021/07/13 03:31:49;;;;;;;;;49.50;41.75;;;;;18.72;93.14;99193.28;3584438;40;14052;-59
2021/07/13 03:34:18;;;;;;;;;48.00;40.00;;;;;18.85;93.07;99196.47;3584745;40;14167;-58
2021/07/13 03:36:49;;;;;;;;;46.50;39.25;;;;;18.71;93.02;99197.88;3593890;40;14072;-58
2021/07/13 03:39:18;;;;;;;;;47.50;39.25;;;;;18.61;94.21;99195.25;3585114;40;14073;-59
2021/07/13 03:41:48;;;;;;;;;52.50;42.75;;;;;18.46;95.07;99194.13;3583712;40;14053;-59
2021/07/13 03:44:18;;;;;;;;;50.50;41.50;;;;;18.67;94.86;99192.91;3585017;40;14192;-58
2021/07/13 03:46:46;;;;;;;;;46.00;37.75;;;;;18.95;93.32;99204.53;3586606;40;14274;-59
2021/07/13 03:49:14;;;;;;;;;49.50;41.00;;;;;19.00;92.61;99199.47;3593533;40;14065;-59
2021/07/13 03:51:45;;;;;;;;;52.25;42.00;;;;;18.87;92.54;99197.16;3586112;40;14713;-58
2021/07/13 03:54:18;;;;;;;;;49.50;40.50;;;;;18.74;93.69;99191.25;3585977;40;14084;-58
2021/07/13 03:56:49;;;;;;;;;45.75;39.75;;;;;18.88;92.67;99198.91;3593650;40;14786;-59
2021/07/13 03:59:18;;;;;;;;;51.75;41.25;;;;;18.93;92.54;99196.53;3592719;40;14132;-59
2021/07/13 04:01:46;;;;;;;;;47.00;37.75;;;;;18.88;92.71;99193.44;3586052;40;14104;-58
2021/07/13 04:04:14;;;;;;;;;47.50;40.50;;;;;19.07;92.78;99195.94;3585509;40;14114;-58
2021/07/13 04:06:42;;;;;;;;;50.25;40.00;;;;;18.86;93.31;99195.47;3586052;40;14668;-58
2021/07/13 04:09:10;;;;;;;;;47.00;40.00;;;;;19.31;91.81;99205.25;3585753;40;14056;-59
2021/07/13 04:11:37;;;;;;;;;47.75;40.50;;;;;19.41;91.65;99205.16;3593666;40;14142;-58
2021/07/13 04:14:06;;;;;;;;;47.75;40.50;;;;;19.54;91.31;99202.81;3585396;40;14059;-59
2021/07/13 04:16:35;;;;;;;;;48.00;40.00;;;;;19.57;91.40;99204.38;3586357;40;14159;-58
2021/07/13 04:19:04;;;;;;;;;49.00;41.00;;;;;19.55;92.04;99203.66;3586759;40;14053;-59
2021/07/13 04:21:31;;;;;;;;;50.00;42.00;;;;;19.75;91.17;99205.16;3585524;40;14213;-58
2021/07/13 04:23:59;;;;;;;;;50.50;40.25;;;;;19.93;90.55;99205.00;3587454;40;14056;-59
2021/07/13 04:26:27;;;;;;;;;54.50;42.25;;;;;19.74;91.79;99212.44;3587679;40;14304;-59
2021/07/13 04:28:55;;;;;;;;;52.50;43.75;;;;;19.99;90.96;99211.69;3586971;40;14061;-59
2021/07/13 04:31:22;;;;;;;;;53.00;43.75;;;;;20.17;90.21;99221.44;3585198;40;14589;-59
2021/07/13 04:33:50;;;;;;;;;51.00;42.50;;;;;20.18;90.77;99219.56;3587674;40;14122;-58
2021/07/13 04:36:17;;;;;;;;;53.75;45.00;;;;;20.31;89.71;99216.34;3583261;40;14084;-59
2021/07/13 04:38:45;;;;;;;;;50.00;40.00;;;;;20.27;90.23;99218.53;3587318;40;14243;-59
2021/07/13 04:41:12;;;;;;;;;50.75;41.75;;;;;20.61;88.44;99232.06;3584428;40;14114;-59
2021/07/13 04:43:40;;;;;;;;;50.75;42.25;;;;;20.54;88.69;99230.22;3587202;40;14190;-59
2021/07/13 04:46:07;;;;;;;;;53.25;43.50;;;;;20.56;89.47;99222.69;3587096;40;14072;-59
2021/07/13 04:48:34;;;;;;;;;49.50;41.25;;;;;20.74;88.85;99225.25;3587790;40;14179;-58
2021/07/13 04:51:02;;;;;;;;;49.75;41.75;;;;;20.84;88.32;99225.94;3582122;40;14043;-60
2021/07/13 04:53:29;;;;;;;;;53.25;42.25;;;;;20.28;91.70;99222.13;3586714;40;14580;-60
2021/07/13 04:55:56;;;;;;;;;52.75;42.75;;;;;20.63;90.78;99223.72;3585222;39;14192;-60
2021/07/13 04:58:24;;;;;;;;;49.75;40.75;;;;;21.00;88.95;99231.38;3594738;40;14165;-59
2021/07/13 05:00:51;;;;;;;;;50.25;42.00;;;;;21.14;88.52;99216.16;3585787;40;14280;-59
2021/07/13 05:03:21;;;;;;;;;49.50;39.50;;;;;20.70;91.12;99221.19;3587560;40;14121;-60
2021/07/13 05:05:49;;;;;;;;;50.75;43.00;;;;;20.87;90.48;99224.75;3587063;40;14050;-60
2021/07/13 05:08:16;;;;;;;;;48.25;41.50;;;;;20.87;90.90;99227.47;3584011;40;14284;-59
2021/07/13 05:10:44;;;;;;;;;49.75;41.00;;;;;20.89;90.95;99228.16;3585932;40;14186;-59
2021/07/13 05:13:11;;;;;;;;;49.25;40.00;;;;;20.97;90.25;99220.78;3591765;39;14053;-60
2021/07/13 05:15:41;;;;;;;;;55.25;44.00;;;;;21.22;89.71;99218.88;3587386;40;14089;-60
2021/07/13 05:18:10;;;;;;;;;49.25;41.00;;;;;21.35;89.55;99221.03;3583931;40;14645;-60
2021/07/13 05:20:43;;;;;;;;;52.25;43.50;;;;;21.67;87.55;99228.31;3586513;40;14153;-59
2021/07/13 05:23:10;;;;;;;;;47.00;38.50;;;;;22.18;85.97;99225.16;3579783;40;14295;-58
2021/07/13 05:25:39;;;;;;;;;51.50;41.25;;;;;21.95;87.29;99216.91;3583454;40;14306;-61
2021/07/13 05:28:10;;;;;;;;;49.50;41.00;;;;;22.52;84.45;99222.03;3585616;40;14191;-60
2021/07/13 05:30:43;;;;;;;;;47.75;39.50;;;;;22.53;84.32;99222.88;3586938;40;14058;-60
2021/07/13 05:33:12;;;;;;;;;49.00;41.50;;;;;22.30;85.08;99222.88;3587245;40;14039;-60
2021/07/13 05:35:40;;;;;;;;;53.50;43.50;;;;;22.08;86.09;99217.19;3586458;40;14091;-60
2021/07/13 05:38:07;;;;;;;;;52.00;41.50;;;;;22.13;86.22;99222.97;3583876;40;14275;-60
2021/07/13 05:40:35;;;;;;;;;52.50;39.75;;;;;22.23;86.30;99211.81;3583083;40;13553;-59
2021/07/13 05:43:02;;;;;;;;;51.75;42.00;;;;;22.84;83.48;99221.97;3586975;40;14103;-59
2021/07/13 05:45:30;;;;;;;;;51.50;41.00;;;;;22.80;83.68;99218.72;3587078;40;14188;-59
2021/07/13 05:47:57;;;;;;;;;49.25;40.75;;;;;23.05;82.58;99215.81;3587059;40;14200;-59
2021/07/13 05:50:25;;;;;;;;;48.50;40.75;;;;;22.98;82.50;99216.53;3586835;40;14012;-59
2021/07/13 05:52:57;;;;;;;;;47.25;40.25;;;;;23.43;81.68;99220.19;3586768;40;13990;-60
2021/07/13 05:55:25;;;;;;;;;51.00;41.75;;;;;23.06;81.84;99222.97;3585094;40;13987;-59
2021/07/13 05:57:52;;;;;;;;;48.25;40.50;;;;;23.61;80.37;99227.16;3587201;40;13997;-59
2021/07/13 06:00:20;;;;;;;;;51.00;40.25;;;;;23.88;78.80;99228.38;3587141;40;14554;-59
2021/07/13 06:02:47;;;;;;;;;46.75;38.50;;;;;23.82;79.49;99223.66;3594606;40;14055;-59
2021/07/13 06:05:15;;;;;;;;;52.00;43.50;;;;;23.29;80.42;99231.97;3586887;40;14002;-60
2021/07/13 06:07:54;;;;;;;;;52.00;43.50;;;;;23.76;79.37;99229.94;3579263;40;14189;-59
2021/07/13 06:10:21;;;;;;;;;49.00;40.75;;;;;24.06;77.93;99236.19;3586825;40;14027;-60
2021/07/13 06:12:48;;;;;;;;;50.75;42.25;;;;;23.97;78.52;99226.41;3593063;40;14050;-59
2021/07/13 06:15:16;;;;;;;;;49.25;40.25;;;;;24.19;77.70;99227.28;3586439;40;14016;-60
2021/07/13 06:17:43;;;;;;;;;46.25;39.25;;;;;24.09;78.40;99227.59;3585389;40;14735;-59
2021/07/13 06:20:12;;;;;;;;;47.75;40.00;;;;;24.34;76.11;99228.09;3585887;40;14574;-60
2021/07/13 06:22:40;;;;;;;;;47.00;40.50;;;;;24.87;74.51;99225.03;3586680;40;14054;-60
2021/07/13 06:25:08;;;;;;;;;46.00;39.25;;;;;24.53;75.76;99226.63;3587386;40;13708;-59
2021/07/13 06:27:36;;;;;;;;;49.25;39.50;;;;;24.81;74.38;99228.59;3586733;40;14562;-59
2021/07/13 06:30:06;;;;;;;;;45.75;36.50;;;;;25.61;72.24;99230.03;3586747;40;13569;-59
2021/07/13 06:32:33;;;;;;;;;49.75;40.25;;;;;25.11;73.25;99232.84;3586592;40;12948;-59
2021/07/13 06:35:01;;;;;;;;;44.75;35.75;;;;;25.78;72.26;99236.91;3586099;40;13102;-59
2021/07/13 06:37:29;;;;;;;;;45.00;38.75;;;;;25.71;70.99;99230.50;3585385;40;12534;-59
2021/07/13 06:39:56;;;;;;;;;43.00;36.25;;;;;25.69;70.46;99242.75;3586303;40;12544;-59
2021/07/13 06:42:24;;;;;;;;;47.75;40.00;;;;;25.76;70.04;99243.66;3586737;40;12128;-59
2021/07/13 06:44:51;;;;;;;;;45.50;38.00;;;;;26.44;68.10;99241.00;3586830;40;12892;-58
2021/07/13 06:47:18;;;;;;;;;43.75;37.50;;;;;26.57;67.97;99245.69;3586616;40;11972;-58
2021/07/13 06:49:46;;;;;;;;;44.75;36.25;;;;;26.42;67.95;99249.44;3594168;40;11746;-58
2021/07/13 06:52:13;;;;;;;;;45.00;37.50;;;;;26.57;68.30;99242.94;3579376;40;11494;-58
2021/07/13 06:54:41;;;;;;;;;44.25;36.00;;;;;27.42;64.94;99254.22;3586314;40;11609;-58
2021/07/13 06:57:08;;;;;;;;;47.25;39.00;;;;;26.97;66.77;99240.25;3583791;40;11046;-59
2021/07/13 06:59:36;;;;;;;;;43.75;37.00;;;;;27.11;65.29;99237.25;3589771;40;12774;-58
2021/07/13 07:02:03;;;;;;;;;40.50;34.00;;;;;27.33;64.13;99243.44;3585840;40;11505;-59
2021/07/13 07:04:31;;;;;;;;;37.25;32.25;;;;;27.94;62.29;99238.63;3586210;40;11168;-58
2021/07/13 07:06:58;;;;;;;;;42.25;35.00;;;;;27.84;62.78;99241.00;3593579;40;10650;-58
2021/07/13 07:09:25;;;;;;;;;42.25;36.25;;;;;27.80;63.22;99240.53;3584045;40;10619;-58
2021/07/13 07:11:53;;;;;;;;;40.25;35.00;;;;;27.36;63.95;99236.63;3585675;40;10441;-59
2021/07/13 07:14:21;;;;;;;;;41.25;35.00;;;;;28.23;61.70;99240.00;3581980;40;13022;-58
2021/07/13 07:16:49;;;;;;;;;41.33;35.00;;;;;28.76;59.91;99238.84;3580923;40;10766;-57
2021/07/13 07:19:18;;;;;;;;;39.50;34.25;;;;;28.70;59.06;99239.72;3267385;39;3607840;-58
2021/07/13 07:21:47;;;;;;;;;35.75;32.00;;;;;28.35;60.83;99229.09;3292397;40;3604478;-58
2021/07/13 07:24:16;;;;;;;;;36.33;33.00;;;;;28.50;60.98;99234.34;3292557;40;3592896;-58
2021/07/13 07:26:45;;;;;;;;;31.50;30.00;;;;;29.38;56.06;99228.75;3276982;40;3593953;-58
2021/07/13 07:29:14;;;;;;;;;30.75;30.00;;;;;29.43;57.39;99228.91;3286098;40;3586635;-58
2021/07/13 07:31:43;;;;;;;;;30.75;29.25;;;;;29.56;56.96;99221.56;3283251;40;3592112;-58
2021/07/13 07:34:13;;;;;;;;;33.00;29.00;;;;;28.93;58.15;99217.88;3285345;40;3597043;-59
2021/07/13 07:36:43;;;;;;;;;35.67;32.00;;;;;29.37;57.18;99224.31;3272944;40;3615838;-59
2021/07/13 07:39:12;;;;;;;;;31.00;30.00;;;;;29.84;54.72;99219.13;3270252;40;3584583;-58
2021/07/13 07:41:42;;;;;;;;;33.33;30.00;;;;;29.52;57.16;99216.50;3288814;40;3593965;-58
2021/07/13 07:44:11;;;;;;;;;39.00;33.50;;;;;29.50;56.94;99226.94;3270268;40;3596143;-58
2021/07/13 07:46:42;;;;;;;;;33.25;29.75;;;;;30.30;54.33;99212.16;3282701;40;3602379;-58
2021/07/13 07:49:11;;;;;;;;;32.33;29.00;;;;;29.94;53.18;99219.44;3282026;40;3593989;-59
2021/07/13 07:51:41;;;;;;;;;30.00;29.67;;;;;30.33;54.44;99216.41;3249702;40;3591874;-58
2021/07/13 07:54:10;;;;;;;;;33.00;29.33;;;;;29.78;54.45;99217.31;3260365;40;1890891;-59
2021/07/13 07:56:39;;;;;;;;;28.00;27.00;;;;;30.23;52.94;99214.22;3265474;40;3587735;-59
2021/07/13 07:59:08;;;;;;;;;28.33;27.33;;;;;30.67;51.86;99217.59;3280101;40;3585605;-59
2021/07/13 08:01:37;;;;;;;;;28.33;27.33;;;;;30.14;53.12;99219.16;3257923;40;3581454;-59
2021/07/13 08:04:07;;;;;;;;;29.33;26.67;;;;;30.89;52.37;99215.16;3279266;40;3582483;-58
2021/07/13 08:06:36;;;;;;;;;27.50;25.50;;;;;30.98;51.45;99213.72;3274473;40;3602339;-58
2021/07/13 08:09:04;;;;;;;;;41.00;35.33;;;;;31.18;49.85;99218.09;3275449;40;3580405;-58
2021/07/13 08:11:37;;;;;;;;;58.00;44.88;;;;;30.44;51.32;99211.97;3254849;40;3626228;-59
2021/07/13 08:14:08;;;;;;;;;160.75;137.75;;;;;30.40;52.21;99206.06;3253427;40;3732483;-58
2021/07/13 08:16:40;;;;;;;;;56.50;45.00;;;;;30.72;52.02;99208.56;3262151;40;4362690;-58
2021/07/13 08:19:10;;;;;;;;;103.33;94.67;;;;;30.24;51.47;99207.56;3275524;40;3677267;-58
2021/07/13 08:21:41;;;;;;;;;132.13;109.88;;;;;30.45;50.91;99208.16;3258708;40;3733539;-58
2021/07/13 08:24:11;;;;;;;;;169.33;137.33;;;;;30.73;50.64;99204.69;3254714;40;3717908;-59
2021/07/13 08:26:40;;;;;;;;;48.50;40.00;;;;;31.38;49.78;99217.75;3264570;40;3586674;-58
2021/07/13 08:29:09;;;;;;;;;40.75;34.00;;;;;31.07;50.01;99200.34;3275780;40;4360589;-59
2021/07/13 08:31:39;;;;;;;;;77.67;69.33;;;;;31.21;50.14;99200.97;3274026;40;3667905;-58
2021/07/13 08:34:08;;;;;;;;;60.00;46.50;;;;;30.85;49.76;99205.63;3274492;40;4358550;-59
2021/07/13 08:36:41;;;;;;;;;48.50;36.63;;;;;31.26;48.74;99204.69;3283698;40;3606433;-59
2021/07/13 08:39:10;;;;;;;;;28.00;25.67;;;;;31.73;46.54;99205.75;3278076;40;3573114;-58
2021/07/13 08:41:40;;;;;;;;;64.25;50.25;;;;;31.49;45.91;99214.09;3262404;40;3615949;-58
2021/07/13 08:44:09;;;;;;;;;319.33;132.33;;;;;31.47;44.90;99210.75;3280293;40;3702256;-56
2021/07/13 08:46:42;;;;;;;;;791.75;306.75;;;;;31.99;45.09;99207.16;3237783;40;3742903;-58
2021/07/13 08:49:14;;;;;;;;;38.67;29.67;;;;;32.47;44.15;99211.47;3274983;40;1895181;-58
2021/07/13 08:51:43;;;;;;;;;55.33;43.67;;;;;31.77;43.04;99216.13;3278422;40;1897116;-60
2021/07/13 08:54:12;;;;;;;;;76.75;72.75;;;;;31.75;44.55;99214.69;3274918;40;4397034;-60
2021/07/13 08:56:41;;;;;;;;;28.50;27.75;;;;;32.23;43.78;99210.69;3274379;40;3587695;-59
2021/07/13 08:59:10;;;;;;;;;31.50;30.25;;;;;32.34;41.50;99215.38;3276280;40;3596064;-59
2021/07/13 09:01:39;;;;;;;;;25.33;25.33;;;;;32.18;43.31;99207.81;3275479;40;3598376;-59
2021/07/13 09:04:11;;;;;;;;;22.86;22.57;;;;;31.56;44.53;99209.28;3275525;40;3589786;-58
2021/07/13 09:06:54;;;;;;;;;36.00;30.33;;;;;32.05;43.13;99204.25;3269793;40;1895091;-58
2021/07/13 09:09:28;;;;;;;;;36.86;30.43;;;;;32.01;41.74;99203.06;3285106;40;3609573;-58
2021/07/13 09:12:16;;;;;;;;;44.50;35.75;;;;;32.18;42.10;99205.03;3258438;40;3597155;-59
2021/07/13 09:15:00;;;;;;;;;56.67;44.00;;;;;32.47;41.84;99194.78;3283095;40;1891917;-60
2021/07/13 09:17:45;;;;;;;;;27.86;26.57;;;;;31.78;42.08;99197.53;3284560;40;3586627;-59
2021/07/13 09:20:23;;;;;;;;;32.33;24.67;;;;;32.35;41.36;99194.84;3260722;40;1911808;-59
2021/07/13 09:23:00;;;;;;;;;31.33;26.67;;;;;32.74;41.59;99200.59;3279058;40;3587707;-59
2021/07/13 09:25:44;;;;;;;;;23.86;23.14;;;;;32.00;42.51;99192.22;3274438;40;3592885;-58
2021/07/13 09:28:21;;;;;;;;;26.00;24.00;;;;;32.42;42.95;99195.53;3258312;40;3604421;-58
2021/07/13 09:30:59;;;;;;;;;25.86;24.71;;;;;32.14;43.22;99185.25;3270794;40;3593942;-58
2021/07/13 09:33:34;;;;;;;;;26.14;24.00;;;;;32.32;43.11;99187.00;3284520;40;3598104;-59
2021/07/13 09:36:13;;;;;;;;;30.29;26.86;;;;;33.02;41.55;99180.25;3268002;40;3589811;-58
2021/07/13 09:38:54;;;;;;;;;46.67;32.33;;;;;32.43;42.01;99180.53;3260231;40;1898646;-58
2021/07/13 09:41:32;;;;;;;;;27.86;26.57;;;;;32.41;42.52;99176.31;3288025;40;3583514;-59
2021/07/13 09:44:05;;;;;;;;;23.00;21.29;;;;;32.60;40.63;99185.31;3272754;40;3593930;-58
2021/07/13 09:46:41;;;;;;;;;338.33;151.67;;;;;33.02;40.26;99183.03;3261387;40;3724201;-59
2021/07/13 09:49:26;;;;;;;;;135.67;115.33;;;;;32.68;40.18;99185.75;3266906;40;3734609;-58
2021/07/13 09:52:05;;;;;;;;;77.33;63.56;;;;;33.26;39.87;99178.09;3265108;40;4407448;-59
2021/07/13 09:54:43;;;;;;;;;47.00;34.50;;;;;33.35;42.22;99184.91;3260348;40;3607520;-58
2021/07/13 09:57:15;;;;;;;;;22.33;21.00;;;;;33.10;39.75;99177.03;3270939;40;3572079;-59
2021/07/13 09:59:50;;;;;;;;;27.86;25.14;;;;;33.10;41.14;99174.25;3284240;40;3591895;-58
2021/07/13 10:02:23;;;;;;;;;44.33;36.67;;;;;33.30;39.01;99176.47;3251247;40;3588777;-58
2021/07/13 10:04:55;;;;;;;;;36.33;31.00;;;;;33.27;40.63;99179.78;3260608;40;1892971;-58
2021/07/13 10:07:29;;;;;;;;;28.00;25.67;;;;;32.57;39.97;99170.84;3277196;40;1889884;-58
2021/07/13 10:10:03;;;;;;;;;28.67;26.00;;;;;33.63;39.48;99171.97;3275609;40;3585617;-58
2021/07/13 10:12:33;;;;;;;;;34.25;29.75;;;;;33.65;39.14;99175.31;3275773;40;3585648;-58
2021/07/13 10:15:05;;;;;;;;;52.63;35.63;;;;;33.76;39.18;99177.16;3273188;40;3641903;-58
2021/07/13 10:17:38;;;;;;;;;28.86;23.00;;;;;33.48;37.83;99180.06;3273670;40;3596044;-58
2021/07/13 10:20:10;;;;;;;;;36.00;27.33;;;;;32.77;39.48;99173.09;3261821;40;1897263;-59
2021/07/13 10:22:44;;;;;;;;;19.33;18.67;;;;;33.59;38.14;99170.78;3283665;40;3580416;-58
2021/07/13 10:25:12;;;;;;;;;55.67;43.67;;;;;33.66;38.07;99182.59;3266267;40;1898219;-59
2021/07/13 10:27:53;;;;;;;;;26.43;23.71;;;;;33.28;38.90;99181.44;3284192;40;3598133;-58
2021/07/13 10:30:24;;;;;;;;;26.14;21.86;;;;;33.97;37.80;99185.78;3268215;40;3568951;-58
2021/07/13 10:32:52;;;;;;;;;196.60;91.80;;;;;33.58;37.72;99188.59;3235925;40;3712707;-59
2021/07/13 10:35:32;;;;;;;;;73.00;42.67;;;;;33.93;38.53;99181.81;3285130;40;3661647;-60
2021/07/13 10:38:13;;;;;;;;;1769.29;655.43;;;;;34.13;37.01;99187.66;3226625;40;6116766;-59
2021/07/13 10:40:42;;;;;;;;;18.00;15.00;;;;;33.18;38.10;99181.31;3277580;40;3537714;-59
2021/07/13 10:43:19;;;;;;;;;27.50;25.75;;;;;32.76;38.08;99171.44;3265419;40;3587671;-60
2021/07/13 10:46:11;;;;;;;;;38.00;27.33;;;;;33.10;37.69;99168.69;3284582;40;1904403;-60
2021/07/13 10:48:42;;;;;;;;;29.29;23.86;;;;;34.24;37.66;99175.50;3286681;40;3590824;-60
2021/07/13 10:51:13;;;;;;;;;27.00;21.14;;;;;33.96;37.44;99164.56;3267992;40;3604342;-60
2021/07/13 10:53:45;;;;;;;;;38.67;29.33;;;;;34.56;38.18;99168.31;3259492;40;1900411;-61
2021/07/13 10:56:30;;;;;;;;;22.00;20.43;;;;;34.23;36.27;99171.06;3284014;40;3566859;-59
2021/07/13 10:59:24;;;;;;;;;22.29;20.57;;;;;34.17;37.48;99177.66;3277219;40;3579427;-60
2021/07/13 11:02:18;;;;;;;;;23.43;20.57;;;;;34.22;36.61;99163.78;3271291;40;3584576;-59
2021/07/13 11:04:47;;;;;;;;;25.00;23.00;;;;;34.33;38.09;99164.72;3267909;40;3592931;-60
2021/07/13 11:07:40;;;;;;;;;23.43;19.86;;;;;34.04;36.64;99170.50;3288746;40;3572056;-60
2021/07/13 11:10:18;;;;;;;;;40.00;28.67;;;;;34.68;35.94;99172.63;3258309;40;1908753;-60
2021/07/13 11:12:51;;;;;;;;;20.67;19.67;;;;;34.18;36.29;99167.34;3276261;40;3585653;-61
2021/07/13 11:20:35;;;;;;;;;21.00;20.33;;;;;34.46;35.96;99157.88;3223500;39;3586915;-60
2021/07/13 11:23:04;;;;;;;;;21.67;21.00;;;;;34.45;35.73;99153.44;3253175;40;3573544;-61
2021/07/13 11:25:34;;;;;;;;;35.00;25.33;;;;;34.98;35.71;99154.47;3232223;40;3627342;-59
2021/07/13 11:28:07;;;;;;;;;26.86;24.71;;;;;34.68;34.72;99150.34;3233672;40;3590821;-61
2021/07/13 11:30:36;;;;;;;;;22.67;21.67;;;;;34.58;35.92;99155.81;3226377;40;1891904;-60
2021/07/13 11:33:08;;;;;;;;;25.33;23.00;;;;;34.23;35.65;99137.59;3249227;40;3595003;-60
2021/07/13 11:35:52;;;;;;;;;23.29;23.29;;;;;34.15;36.35;99132.47;3233550;40;3596022;-60